sensor_id;sensor_type;location;lat;lon;timestamp;P1;durP1;ratioP1;P2;durP2;ratioP2
24859;SDS011;12936;52.006;4.350;2023-04-03T00:00:23;2.23;;;0.93;;
24859;SDS011;12936;52.006;4.350;2023-04-03T00:02:53;2.73;;;1.20;;
24859;SDS011;12936;52.006;4.350;2023-04-03T00:05:42;4.27;;;1.10;;
24859;SDS011;12936;52.006;4.350;2023-04-03T00:08:13;2.70;;;1.30;;
24859;SDS011;12936;52.006;4.350;2023-04-03T00:10:47;1.90;;;1.00;;
24859;SDS011;12936;52.006;4.350;2023-04-03T00:13:16;1.70;;;1.13;;
24859;SDS011;12936;52.006;4.350;2023-04-03T00:16:05;2.77;;;1.10;;
24859;SDS011;12936;52.006;4.350;2023-04-03T00:18:33;3.87;;;1.07;;
24859;SDS011;12936;52.006;4.350;2023-04-03T00:21:04;4.03;;;1.40;;
24859;SDS011;12936;52.006;4.350;2023-04-03T00:23:33;4.37;;;1.00;;
24859;SDS011;12936;52.006;4.350;2023-04-03T00:26:13;4.63;;;1.53;;
24859;SDS011;12936;52.006;4.350;2023-04-03T00:28:44;1.50;;;1.13;;
24859;SDS011;12936;52.006;4.350;2023-04-03T00:31:14;2.13;;;1.20;;
24859;SDS011;12936;52.006;4.350;2023-04-03T00:34:03;3.43;;;1.37;;
24859;SDS011;12936;52.006;4.350;2023-04-03T00:36:31;2.90;;;1.40;;
24859;SDS011;12936;52.006;4.350;2023-04-03T00:39:00;2.40;;;0.97;;
24859;SDS011;12936;52.006;4.350;2023-04-03T00:41:31;2.97;;;1.43;;
24859;SDS011;12936;52.006;4.350;2023-04-03T00:46:48;1.60;;;1.10;;
24859;SDS011;12936;52.006;4.350;2023-04-03T00:49:18;3.00;;;1.50;;
24859;SDS011;12936;52.006;4.350;2023-04-03T00:51:46;1.77;;;1.13;;
24859;SDS011;12936;52.006;4.350;2023-04-03T00:54:16;3.30;;;1.40;;
24859;SDS011;12936;52.006;4.350;2023-04-03T00:56:46;3.57;;;1.40;;
24859;SDS011;12936;52.006;4.350;2023-04-03T00:59:20;2.53;;;1.07;;
24859;SDS011;12936;52.006;4.350;2023-04-03T01:01:54;2.60;;;1.20;;
24859;SDS011;12936;52.006;4.350;2023-04-03T01:04:26;4.30;;;1.17;;
24859;SDS011;12936;52.006;4.350;2023-04-03T01:06:56;2.10;;;1.23;;
24859;SDS011;12936;52.006;4.350;2023-04-03T01:09:29;1.77;;;1.00;;
24859;SDS011;12936;52.006;4.350;2023-04-03T01:12:13;4.97;;;1.43;;
24859;SDS011;12936;52.006;4.350;2023-04-03T01:14:43;3.03;;;1.33;;
24859;SDS011;12936;52.006;4.350;2023-04-03T01:17:24;3.53;;;1.30;;
24859;SDS011;12936;52.006;4.350;2023-04-03T01:20:03;2.73;;;1.40;;
24859;SDS011;12936;52.006;4.350;2023-04-03T01:23:06;1.90;;;1.10;;
24859;SDS011;12936;52.006;4.350;2023-04-03T01:25:52;4.67;;;1.87;;
24859;SDS011;12936;52.006;4.350;2023-04-03T01:28:44;2.33;;;1.10;;
24859;SDS011;12936;52.006;4.350;2023-04-03T01:31:13;3.70;;;1.30;;
24859;SDS011;12936;52.006;4.350;2023-04-03T01:33:49;2.53;;;1.10;;
24859;SDS011;12936;52.006;4.350;2023-04-03T01:36:18;4.90;;;1.20;;
24859;SDS011;12936;52.006;4.350;2023-04-03T01:38:48;2.37;;;1.30;;
24859;SDS011;12936;52.006;4.350;2023-04-03T01:41:16;2.87;;;1.37;;
24859;SDS011;12936;52.006;4.350;2023-04-03T01:43:47;2.57;;;1.17;;
24859;SDS011;12936;52.006;4.350;2023-04-03T01:46:16;1.67;;;1.00;;
24859;SDS011;12936;52.006;4.350;2023-04-03T01:48:47;3.77;;;1.37;;
24859;SDS011;12936;52.006;4.350;2023-04-03T01:51:17;2.90;;;1.30;;
24859;SDS011;12936;52.006;4.350;2023-04-03T01:53:46;2.10;;;1.17;;
24859;SDS011;12936;52.006;4.350;2023-04-03T01:56:14;2.27;;;1.30;;
24859;SDS011;12936;52.006;4.350;2023-04-03T01:58:43;4.53;;;1.70;;
24859;SDS011;12936;52.006;4.350;2023-04-03T02:01:12;2.07;;;1.10;;
24859;SDS011;12936;52.006;4.350;2023-04-03T02:03:40;1.80;;;1.20;;
24859;SDS011;12936;52.006;4.350;2023-04-03T02:06:12;3.07;;;1.27;;
24859;SDS011;12936;52.006;4.350;2023-04-03T02:08:41;3.10;;;1.20;;
24859;SDS011;12936;52.006;4.350;2023-04-03T02:11:09;2.77;;;1.27;;
24859;SDS011;12936;52.006;4.350;2023-04-03T02:13:37;3.30;;;1.30;;
24859;SDS011;12936;52.006;4.350;2023-04-03T02:16:07;3.03;;;1.10;;
24859;SDS011;12936;52.006;4.350;2023-04-03T02:18:38;3.13;;;1.60;;
24859;SDS011;12936;52.006;4.350;2023-04-03T02:21:06;3.47;;;1.13;;
24859;SDS011;12936;52.006;4.350;2023-04-03T02:23:36;4.60;;;1.17;;
24859;SDS011;12936;52.006;4.350;2023-04-03T02:26:05;2.03;;;1.07;;
24859;SDS011;12936;52.006;4.350;2023-04-03T02:28:35;3.57;;;1.17;;
24859;SDS011;12936;52.006;4.350;2023-04-03T02:31:04;2.33;;;1.40;;
24859;SDS011;12936;52.006;4.350;2023-04-03T02:33:34;3.90;;;1.50;;
24859;SDS011;12936;52.006;4.350;2023-04-03T02:36:03;4.40;;;1.10;;
24859;SDS011;12936;52.006;4.350;2023-04-03T02:38:33;1.70;;;1.27;;
24859;SDS011;12936;52.006;4.350;2023-04-03T02:41:05;3.17;;;1.37;;
24859;SDS011;12936;52.006;4.350;2023-04-03T02:43:35;3.57;;;1.30;;
24859;SDS011;12936;52.006;4.350;2023-04-03T02:46:05;3.57;;;1.30;;
24859;SDS011;12936;52.006;4.350;2023-04-03T02:48:34;5.33;;;1.47;;
24859;SDS011;12936;52.006;4.350;2023-04-03T02:51:02;3.90;;;1.30;;
24859;SDS011;12936;52.006;4.350;2023-04-03T02:53:32;2.70;;;1.33;;
24859;SDS011;12936;52.006;4.350;2023-04-03T02:56:04;3.63;;;1.77;;
24859;SDS011;12936;52.006;4.350;2023-04-03T02:58:33;2.70;;;1.20;;
24859;SDS011;12936;52.006;4.350;2023-04-03T03:01:22;6.27;;;1.50;;
24859;SDS011;12936;52.006;4.350;2023-04-03T03:03:51;2.13;;;1.30;;
24859;SDS011;12936;52.006;4.350;2023-04-03T03:06:20;5.03;;;1.80;;
24859;SDS011;12936;52.006;4.350;2023-04-03T03:08:48;5.03;;;1.60;;
24859;SDS011;12936;52.006;4.350;2023-04-03T03:11:18;2.47;;;1.40;;
24859;SDS011;12936;52.006;4.350;2023-04-03T03:13:48;3.47;;;1.40;;
24859;SDS011;12936;52.006;4.350;2023-04-03T03:16:19;3.40;;;1.40;;
24859;SDS011;12936;52.006;4.350;2023-04-03T03:18:48;2.47;;;1.50;;
24859;SDS011;12936;52.006;4.350;2023-04-03T03:21:19;2.57;;;1.30;;
24859;SDS011;12936;52.006;4.350;2023-04-03T03:23:47;2.73;;;1.40;;
24859;SDS011;12936;52.006;4.350;2023-04-03T03:26:20;3.03;;;1.40;;
24859;SDS011;12936;52.006;4.350;2023-04-03T03:28:50;3.13;;;1.20;;
24859;SDS011;12936;52.006;4.350;2023-04-03T03:31:20;2.33;;;1.00;;
24859;SDS011;12936;52.006;4.350;2023-04-03T03:33:49;3.63;;;1.80;;
24859;SDS011;12936;52.006;4.350;2023-04-03T03:36:17;3.63;;;1.43;;
24859;SDS011;12936;52.006;4.350;2023-04-03T03:38:46;2.40;;;1.30;;
24859;SDS011;12936;52.006;4.350;2023-04-03T03:41:15;3.20;;;1.50;;
24859;SDS011;12936;52.006;4.350;2023-04-03T03:43:47;2.87;;;1.60;;
24859;SDS011;12936;52.006;4.350;2023-04-03T03:46:15;2.17;;;1.43;;
24859;SDS011;12936;52.006;4.350;2023-04-03T03:48:44;3.40;;;1.63;;
24859;SDS011;12936;52.006;4.350;2023-04-03T03:51:12;4.03;;;1.50;;
24859;SDS011;12936;52.006;4.350;2023-04-03T03:53:41;2.97;;;1.60;;
24859;SDS011;12936;52.006;4.350;2023-04-03T03:56:09;3.07;;;1.50;;
24859;SDS011;12936;52.006;4.350;2023-04-03T03:58:37;4.67;;;1.73;;
24859;SDS011;12936;52.006;4.350;2023-04-03T04:01:08;3.40;;;1.63;;
24859;SDS011;12936;52.006;4.350;2023-04-03T04:03:36;3.27;;;1.40;;
24859;SDS011;12936;52.006;4.350;2023-04-03T04:06:05;3.43;;;1.50;;
24859;SDS011;12936;52.006;4.350;2023-04-03T04:08:33;4.17;;;1.67;;
24859;SDS011;12936;52.006;4.350;2023-04-03T04:11:01;2.33;;;1.60;;
24859;SDS011;12936;52.006;4.350;2023-04-03T04:13:30;3.80;;;1.57;;
24859;SDS011;12936;52.006;4.350;2023-04-03T04:15:59;2.93;;;1.53;;
24859;SDS011;12936;52.006;4.350;2023-04-03T04:18:30;5.37;;;1.90;;
24859;SDS011;12936;52.006;4.350;2023-04-03T04:20:59;3.30;;;1.57;;
24859;SDS011;12936;52.006;4.350;2023-04-03T04:23:27;2.60;;;1.50;;
24859;SDS011;12936;52.006;4.350;2023-04-03T04:25:55;3.80;;;1.63;;
24859;SDS011;12936;52.006;4.350;2023-04-03T04:28:24;3.07;;;1.70;;
24859;SDS011;12936;52.006;4.350;2023-04-03T04:30:52;4.63;;;1.83;;
24859;SDS011;12936;52.006;4.350;2023-04-03T04:33:21;2.47;;;1.50;;
24859;SDS011;12936;52.006;4.350;2023-04-03T04:35:50;4.23;;;1.50;;
24859;SDS011;12936;52.006;4.350;2023-04-03T04:38:22;2.63;;;1.70;;
24859;SDS011;12936;52.006;4.350;2023-04-03T04:40:50;3.63;;;1.73;;
24859;SDS011;12936;52.006;4.350;2023-04-03T04:43:21;6.37;;;1.73;;
24859;SDS011;12936;52.006;4.350;2023-04-03T04:45:57;6.13;;;1.93;;
24859;SDS011;12936;52.006;4.350;2023-04-03T04:48:28;2.80;;;1.70;;
24859;SDS011;12936;52.006;4.350;2023-04-03T04:50:59;2.50;;;1.63;;
24859;SDS011;12936;52.006;4.350;2023-04-03T04:53:48;2.43;;;1.63;;
24859;SDS011;12936;52.006;4.350;2023-04-03T04:56:18;3.50;;;1.80;;
24859;SDS011;12936;52.006;4.350;2023-04-03T04:58:47;4.73;;;1.90;;
24859;SDS011;12936;52.006;4.350;2023-04-03T05:01:15;4.60;;;1.87;;
24859;SDS011;12936;52.006;4.350;2023-04-03T05:03:43;5.70;;;1.70;;
24859;SDS011;12936;52.006;4.350;2023-04-03T05:06:12;3.53;;;1.70;;
24859;SDS011;12936;52.006;4.350;2023-04-03T05:08:41;5.77;;;2.10;;
24859;SDS011;12936;52.006;4.350;2023-04-03T05:11:08;3.03;;;1.90;;
24859;SDS011;12936;52.006;4.350;2023-04-03T05:13:37;6.30;;;1.90;;
24859;SDS011;12936;52.006;4.350;2023-04-03T05:16:05;4.53;;;2.20;;
24859;SDS011;12936;52.006;4.350;2023-04-03T05:18:33;3.17;;;1.93;;
24859;SDS011;12936;52.006;4.350;2023-04-03T05:21:02;4.90;;;2.30;;
24859;SDS011;12936;52.006;4.350;2023-04-03T05:23:32;4.93;;;1.93;;
24859;SDS011;12936;52.006;4.350;2023-04-03T05:26:00;3.10;;;1.70;;
24859;SDS011;12936;52.006;4.350;2023-04-03T05:28:28;5.77;;;2.20;;
24859;SDS011;12936;52.006;4.350;2023-04-03T05:30:57;4.63;;;1.70;;
24859;SDS011;12936;52.006;4.350;2023-04-03T05:33:26;5.77;;;2.10;;
24859;SDS011;12936;52.006;4.350;2023-04-03T05:35:54;4.63;;;2.23;;
24859;SDS011;12936;52.006;4.350;2023-04-03T05:38:22;5.60;;;1.67;;
24859;SDS011;12936;52.006;4.350;2023-04-03T05:40:52;4.60;;;2.10;;
24859;SDS011;12936;52.006;4.350;2023-04-03T05:43:20;2.97;;;1.90;;
24859;SDS011;12936;52.006;4.350;2023-04-03T05:45:48;6.10;;;2.17;;
24859;SDS011;12936;52.006;4.350;2023-04-03T05:48:16;3.63;;;1.80;;
24859;SDS011;12936;52.006;4.350;2023-04-03T05:50:44;3.90;;;2.03;;
24859;SDS011;12936;52.006;4.350;2023-04-03T05:53:14;3.83;;;1.90;;
24859;SDS011;12936;52.006;4.350;2023-04-03T05:55:46;3.53;;;1.83;;
24859;SDS011;12936;52.006;4.350;2023-04-03T05:58:15;5.37;;;1.87;;
24859;SDS011;12936;52.006;4.350;2023-04-03T06:00:43;4.40;;;2.07;;
24859;SDS011;12936;52.006;4.350;2023-04-03T06:03:14;3.20;;;1.77;;
24859;SDS011;12936;52.006;4.350;2023-04-03T06:05:43;3.57;;;2.03;;
24859;SDS011;12936;52.006;4.350;2023-04-03T06:08:12;3.87;;;1.73;;
24859;SDS011;12936;52.006;4.350;2023-04-03T06:10:40;3.63;;;2.13;;
24859;SDS011;12936;52.006;4.350;2023-04-03T06:13:08;5.37;;;1.90;;
24859;SDS011;12936;52.006;4.350;2023-04-03T06:15:38;3.53;;;2.03;;
24859;SDS011;12936;52.006;4.350;2023-04-03T06:18:06;7.00;;;2.23;;
24859;SDS011;12936;52.006;4.350;2023-04-03T06:20:36;6.60;;;2.23;;
24859;SDS011;12936;52.006;4.350;2023-04-03T06:23:04;4.37;;;2.00;;
24859;SDS011;12936;52.006;4.350;2023-04-03T06:25:33;3.67;;;2.13;;
24859;SDS011;12936;52.006;4.350;2023-04-03T06:28:01;5.37;;;2.13;;
24859;SDS011;12936;52.006;4.350;2023-04-03T06:30:30;8.73;;;2.30;;
24859;SDS011;12936;52.006;4.350;2023-04-03T06:32:59;5.40;;;2.10;;
24859;SDS011;12936;52.006;4.350;2023-04-03T06:35:27;7.70;;;2.17;;
24859;SDS011;12936;52.006;4.350;2023-04-03T06:37:56;7.63;;;2.07;;
24859;SDS011;12936;52.006;4.350;2023-04-03T06:40:25;2.63;;;1.70;;
24859;SDS011;12936;52.006;4.350;2023-04-03T06:42:53;5.17;;;2.40;;
24859;SDS011;12936;52.006;4.350;2023-04-03T06:45:24;4.37;;;2.30;;
24859;SDS011;12936;52.006;4.350;2023-04-03T06:47:52;6.37;;;2.00;;
24859;SDS011;12936;52.006;4.350;2023-04-03T06:50:23;4.07;;;1.90;;
24859;SDS011;12936;52.006;4.350;2023-04-03T06:52:51;3.27;;;1.97;;
24859;SDS011;12936;52.006;4.350;2023-04-03T06:55:19;8.43;;;2.43;;
24859;SDS011;12936;52.006;4.350;2023-04-03T06:57:48;2.40;;;1.80;;
24859;SDS011;12936;52.006;4.350;2023-04-03T07:00:16;6.47;;;2.00;;
24859;SDS011;12936;52.006;4.350;2023-04-03T07:02:45;5.07;;;2.30;;
24859;SDS011;12936;52.006;4.350;2023-04-03T07:05:13;6.37;;;2.60;;
24859;SDS011;12936;52.006;4.350;2023-04-03T07:07:43;7.40;;;2.40;;
24859;SDS011;12936;52.006;4.350;2023-04-03T07:10:11;5.20;;;2.40;;
24859;SDS011;12936;52.006;4.350;2023-04-03T07:12:39;6.40;;;2.50;;
24859;SDS011;12936;52.006;4.350;2023-04-03T07:15:07;4.77;;;2.33;;
24859;SDS011;12936;52.006;4.350;2023-04-03T07:17:36;8.30;;;2.80;;
24859;SDS011;12936;52.006;4.350;2023-04-03T07:20:05;4.67;;;2.43;;
24859;SDS011;12936;52.006;4.350;2023-04-03T07:22:34;9.53;;;2.50;;
24859;SDS011;12936;52.006;4.350;2023-04-03T07:25:04;4.00;;;2.13;;
24859;SDS011;12936;52.006;4.350;2023-04-03T07:27:33;5.83;;;2.33;;
24859;SDS011;12936;52.006;4.350;2023-04-03T07:30:01;7.73;;;2.60;;
24859;SDS011;12936;52.006;4.350;2023-04-03T07:32:30;6.87;;;2.30;;
24859;SDS011;12936;52.006;4.350;2023-04-03T07:34:58;9.23;;;2.13;;
24859;SDS011;12936;52.006;4.350;2023-04-03T07:37:28;6.27;;;2.50;;
24859;SDS011;12936;52.006;4.350;2023-04-03T07:39:56;4.80;;;2.13;;
24859;SDS011;12936;52.006;4.350;2023-04-03T07:42:26;4.97;;;2.17;;
24859;SDS011;12936;52.006;4.350;2023-04-03T07:44:54;3.17;;;1.40;;
24859;SDS011;12936;52.006;4.350;2023-04-03T07:47:22;9.10;;;1.80;;
24859;SDS011;12936;52.006;4.350;2023-04-03T07:49:50;4.27;;;1.50;;
24859;SDS011;12936;52.006;4.350;2023-04-03T07:52:19;3.40;;;1.83;;
24859;SDS011;12936;52.006;4.350;2023-04-03T07:54:47;5.60;;;1.70;;
24859;SDS011;12936;52.006;4.350;2023-04-03T07:57:15;3.73;;;1.50;;
24859;SDS011;12936;52.006;4.350;2023-04-03T07:59:45;4.60;;;2.00;;
24859;SDS011;12936;52.006;4.350;2023-04-03T08:02:13;4.37;;;1.70;;
24859;SDS011;12936;52.006;4.350;2023-04-03T08:04:41;4.77;;;1.40;;
24859;SDS011;12936;52.006;4.350;2023-04-03T08:07:09;4.70;;;1.80;;
24859;SDS011;12936;52.006;4.350;2023-04-03T08:09:37;7.07;;;1.80;;
24859;SDS011;12936;52.006;4.350;2023-04-03T08:12:05;5.87;;;1.90;;
24859;SDS011;12936;52.006;4.350;2023-04-03T08:14:33;3.53;;;1.70;;
24859;SDS011;12936;52.006;4.350;2023-04-03T08:17:03;4.93;;;1.90;;
24859;SDS011;12936;52.006;4.350;2023-04-03T08:19:31;3.63;;;1.63;;
24859;SDS011;12936;52.006;4.350;2023-04-03T08:22:00;4.23;;;1.50;;
24859;SDS011;12936;52.006;4.350;2023-04-03T08:24:29;4.37;;;1.33;;
24859;SDS011;12936;52.006;4.350;2023-04-03T08:26:57;6.67;;;1.67;;
24859;SDS011;12936;52.006;4.350;2023-04-03T08:29:25;4.70;;;1.40;;
24859;SDS011;12936;52.006;4.350;2023-04-03T08:31:53;3.57;;;1.23;;
24859;SDS011;12936;52.006;4.350;2023-04-03T08:34:23;3.37;;;1.50;;
24859;SDS011;12936;52.006;4.350;2023-04-03T08:36:50;6.90;;;1.90;;
24859;SDS011;12936;52.006;4.350;2023-04-03T08:39:19;3.40;;;1.40;;
24859;SDS011;12936;52.006;4.350;2023-04-03T08:41:46;3.57;;;1.60;;
24859;SDS011;12936;52.006;4.350;2023-04-03T08:44:17;5.63;;;1.53;;
24859;SDS011;12936;52.006;4.350;2023-04-03T08:46:54;5.83;;;1.70;;
24859;SDS011;12936;52.006;4.350;2023-04-03T08:49:31;5.07;;;1.60;;
24859;SDS011;12936;52.006;4.350;2023-04-03T08:52:02;4.30;;;1.60;;
24859;SDS011;12936;52.006;4.350;2023-04-03T08:54:46;4.10;;;1.70;;
24859;SDS011;12936;52.006;4.350;2023-04-03T08:57:17;6.77;;;1.80;;
24859;SDS011;12936;52.006;4.350;2023-04-03T08:59:51;7.50;;;1.50;;
24859;SDS011;12936;52.006;4.350;2023-04-03T09:02:24;3.30;;;1.30;;
24859;SDS011;12936;52.006;4.350;2023-04-03T09:04:57;6.87;;;1.57;;
24859;SDS011;12936;52.006;4.350;2023-04-03T09:07:29;4.77;;;1.80;;
24859;SDS011;12936;52.006;4.350;2023-04-03T09:10:02;3.20;;;1.40;;
24859;SDS011;12936;52.006;4.350;2023-04-03T09:12:33;4.63;;;1.60;;
24859;SDS011;12936;52.006;4.350;2023-04-03T09:15:06;5.13;;;1.30;;
24859;SDS011;12936;52.006;4.350;2023-04-03T09:17:53;2.07;;;0.97;;
24859;SDS011;12936;52.006;4.350;2023-04-03T09:20:31;4.90;;;1.50;;
24859;SDS011;12936;52.006;4.350;2023-04-03T09:23:10;5.17;;;1.40;;
24859;SDS011;12936;52.006;4.350;2023-04-03T09:25:45;3.43;;;1.30;;
24859;SDS011;12936;52.006;4.350;2023-04-03T09:28:14;2.07;;;1.00;;
24859;SDS011;12936;52.006;4.350;2023-04-03T09:30:42;3.80;;;1.20;;
24859;SDS011;12936;52.006;4.350;2023-04-03T09:33:10;3.47;;;1.37;;
24859;SDS011;12936;52.006;4.350;2023-04-03T09:35:41;1.53;;;0.70;;
24859;SDS011;12936;52.006;4.350;2023-04-03T09:38:18;2.47;;;1.30;;
24859;SDS011;12936;52.006;4.350;2023-04-03T09:40:48;3.33;;;0.83;;
24859;SDS011;12936;52.006;4.350;2023-04-03T09:43:23;2.90;;;0.90;;
24859;SDS011;12936;52.006;4.350;2023-04-03T09:45:54;3.97;;;1.13;;
24859;SDS011;12936;52.006;4.350;2023-04-03T09:48:23;2.87;;;0.90;;
24859;SDS011;12936;52.006;4.350;2023-04-03T09:50:59;2.03;;;0.90;;
24859;SDS011;12936;52.006;4.350;2023-04-03T09:53:30;2.03;;;1.00;;
24859;SDS011;12936;52.006;4.350;2023-04-03T09:56:02;3.97;;;0.90;;
24859;SDS011;12936;52.006;4.350;2023-04-03T09:58:42;2.23;;;0.90;;
24859;SDS011;12936;52.006;4.350;2023-04-03T10:01:23;4.80;;;0.90;;
24859;SDS011;12936;52.006;4.350;2023-04-03T10:04:06;13.97;;;0.90;;
24859;SDS011;12936;52.006;4.350;2023-04-03T10:06:38;3.17;;;0.90;;
24859;SDS011;12936;52.006;4.350;2023-04-03T10:09:19;2.70;;;0.67;;
24859;SDS011;12936;52.006;4.350;2023-04-03T10:11:57;2.20;;;1.07;;
24859;SDS011;12936;52.006;4.350;2023-04-03T10:14:27;6.27;;;0.90;;
24859;SDS011;12936;52.006;4.350;2023-04-03T10:16:58;6.70;;;1.07;;
24859;SDS011;12936;52.006;4.350;2023-04-03T10:19:37;1.73;;;0.67;;
24859;SDS011;12936;52.006;4.350;2023-04-03T10:22:13;2.67;;;0.60;;
24859;SDS011;12936;52.006;4.350;2023-04-03T10:24:49;5.20;;;0.77;;
24859;SDS011;12936;52.006;4.350;2023-04-03T10:27:24;3.10;;;0.90;;
24859;SDS011;12936;52.006;4.350;2023-04-03T10:30:01;3.33;;;0.80;;
24859;SDS011;12936;52.006;4.350;2023-04-03T10:32:43;2.43;;;0.70;;
24859;SDS011;12936;52.006;4.350;2023-04-03T10:35:24;3.80;;;0.80;;
24859;SDS011;12936;52.006;4.350;2023-04-03T10:38:03;3.97;;;0.80;;
24859;SDS011;12936;52.006;4.350;2023-04-03T10:40:43;2.90;;;0.97;;
24859;SDS011;12936;52.006;4.350;2023-04-03T10:43:16;3.10;;;1.10;;
24859;SDS011;12936;52.006;4.350;2023-04-03T10:45:50;2.70;;;0.80;;
24859;SDS011;12936;52.006;4.350;2023-04-03T10:48:28;2.70;;;1.00;;
24859;SDS011;12936;52.006;4.350;2023-04-03T10:51:11;1.77;;;0.67;;
24859;SDS011;12936;52.006;4.350;2023-04-03T10:53:50;7.10;;;0.87;;
24859;SDS011;12936;52.006;4.350;2023-04-03T10:56:27;2.10;;;0.63;;
24859;SDS011;12936;52.006;4.350;2023-04-03T10:59:02;2.53;;;1.00;;
24859;SDS011;12936;52.006;4.350;2023-04-03T11:01:41;3.27;;;0.80;;
24859;SDS011;12936;52.006;4.350;2023-04-03T11:04:11;1.93;;;0.70;;
24859;SDS011;12936;52.006;4.350;2023-04-03T11:06:43;1.83;;;0.70;;
24859;SDS011;12936;52.006;4.350;2023-04-03T11:09:18;2.40;;;0.80;;
24859;SDS011;12936;52.006;4.350;2023-04-03T11:11:51;4.33;;;0.60;;
24859;SDS011;12936;52.006;4.350;2023-04-03T11:14:24;2.57;;;0.83;;
24859;SDS011;12936;52.006;4.350;2023-04-03T11:16:59;4.30;;;0.70;;
24859;SDS011;12936;52.006;4.350;2023-04-03T11:19:34;4.67;;;0.90;;
24859;SDS011;12936;52.006;4.350;2023-04-03T11:22:08;1.30;;;0.70;;
24859;SDS011;12936;52.006;4.350;2023-04-03T11:24:42;2.53;;;0.70;;
24859;SDS011;12936;52.006;4.350;2023-04-03T11:27:24;1.07;;;0.70;;
24859;SDS011;12936;52.006;4.350;2023-04-03T11:29:57;2.00;;;0.80;;
24859;SDS011;12936;52.006;4.350;2023-04-03T11:35:27;1.87;;;0.77;;
24859;SDS011;12936;52.006;4.350;2023-04-03T11:37:55;1.83;;;0.63;;
24859;SDS011;12936;52.006;4.350;2023-04-03T11:40:26;1.37;;;0.60;;
24859;SDS011;12936;52.006;4.350;2023-04-03T11:43:03;4.67;;;1.60;;
24859;SDS011;12936;52.006;4.350;2023-04-03T11:45:34;2.23;;;0.57;;
24859;SDS011;12936;52.006;4.350;2023-04-03T11:48:06;3.57;;;0.90;;
24859;SDS011;12936;52.006;4.350;2023-04-03T11:50:57;1.13;;;0.70;;
24859;SDS011;12936;52.006;4.350;2023-04-03T11:53:28;4.70;;;0.60;;
24859;SDS011;12936;52.006;4.350;2023-04-03T11:56:01;2.47;;;0.67;;
24859;SDS011;12936;52.006;4.350;2023-04-03T12:01:48;4.77;;;0.60;;
24859;SDS011;12936;52.006;4.350;2023-04-03T12:04:18;0.53;;;0.40;;
24859;SDS011;12936;52.006;4.350;2023-04-03T12:12:59;3.50;;;0.70;;
24859;SDS011;12936;52.006;4.350;2023-04-03T12:22:04;0.47;;;0.40;;
24859;SDS011;12936;52.006;4.350;2023-04-03T12:24:37;0.97;;;0.40;;
24859;SDS011;12936;52.006;4.350;2023-04-03T12:30:25;0.30;;;0.30;;
24859;SDS011;12936;52.006;4.350;2023-04-03T12:36:18;3.97;;;0.50;;
24859;SDS011;12936;52.006;4.350;2023-04-03T12:39:13;2.37;;;0.50;;
24859;SDS011;12936;52.006;4.350;2023-04-03T12:42:11;3.20;;;0.50;;
24859;SDS011;12936;52.006;4.350;2023-04-03T12:45:16;2.30;;;0.60;;
24859;SDS011;12936;52.006;4.350;2023-04-03T12:48:03;1.00;;;0.40;;
24859;SDS011;12936;52.006;4.350;2023-04-03T12:50:41;1.30;;;0.43;;
24859;SDS011;12936;52.006;4.350;2023-04-03T12:53:13;0.67;;;0.40;;
24859;SDS011;12936;52.006;4.350;2023-04-03T12:55:45;1.20;;;0.50;;
24859;SDS011;12936;52.006;4.350;2023-04-03T12:58:14;4.07;;;0.67;;
24859;SDS011;12936;52.006;4.350;2023-04-03T13:00:44;0.57;;;0.37;;
24859;SDS011;12936;52.006;4.350;2023-04-03T13:03:23;1.20;;;0.40;;
24859;SDS011;12936;52.006;4.350;2023-04-03T13:05:54;0.90;;;0.47;;
24859;SDS011;12936;52.006;4.350;2023-04-03T13:08:24;2.63;;;0.50;;
24859;SDS011;12936;52.006;4.350;2023-04-03T13:10:54;2.77;;;0.53;;
24859;SDS011;12936;52.006;4.350;2023-04-03T13:13:25;1.93;;;0.60;;
24859;SDS011;12936;52.006;4.350;2023-04-03T13:15:53;0.93;;;0.37;;
24859;SDS011;12936;52.006;4.350;2023-04-03T13:18:26;3.60;;;0.67;;
24859;SDS011;12936;52.006;4.350;2023-04-03T13:20:59;1.80;;;0.70;;
24859;SDS011;12936;52.006;4.350;2023-04-03T13:23:30;2.40;;;0.80;;
24859;SDS011;12936;52.006;4.350;2023-04-03T13:25:59;2.67;;;0.73;;
24859;SDS011;12936;52.006;4.350;2023-04-03T13:28:30;1.13;;;0.80;;
24859;SDS011;12936;52.006;4.350;2023-04-03T13:31:03;2.57;;;0.60;;
24859;SDS011;12936;52.006;4.350;2023-04-03T13:33:37;1.67;;;0.93;;
24859;SDS011;12936;52.006;4.350;2023-04-03T13:36:22;3.17;;;0.63;;
24859;SDS011;12936;52.006;4.350;2023-04-03T13:39:00;3.23;;;1.10;;
24859;SDS011;12936;52.006;4.350;2023-04-03T13:41:32;2.87;;;0.80;;
24859;SDS011;12936;52.006;4.350;2023-04-03T13:44:14;1.67;;;0.93;;
24859;SDS011;12936;52.006;4.350;2023-04-03T13:46:53;1.40;;;0.90;;
24859;SDS011;12936;52.006;4.350;2023-04-03T13:49:27;1.13;;;0.60;;
24859;SDS011;12936;52.006;4.350;2023-04-03T13:51:58;2.60;;;0.67;;
24859;SDS011;12936;52.006;4.350;2023-04-03T13:54:34;1.40;;;0.87;;
24859;SDS011;12936;52.006;4.350;2023-04-03T13:57:10;3.33;;;0.53;;
24859;SDS011;12936;52.006;4.350;2023-04-03T13:59:40;1.10;;;0.93;;
24859;SDS011;12936;52.006;4.350;2023-04-03T14:02:14;1.87;;;0.77;;
24859;SDS011;12936;52.006;4.350;2023-04-03T14:04:47;2.90;;;1.20;;
24859;SDS011;12936;52.006;4.350;2023-04-03T14:07:22;2.57;;;1.00;;
24859;SDS011;12936;52.006;4.350;2023-04-03T14:09:50;2.50;;;0.80;;
24859;SDS011;12936;52.006;4.350;2023-04-03T14:12:20;1.47;;;0.80;;
24859;SDS011;12936;52.006;4.350;2023-04-03T14:14:57;3.93;;;1.13;;
24859;SDS011;12936;52.006;4.350;2023-04-03T14:17:27;3.33;;;1.10;;
24859;SDS011;12936;52.006;4.350;2023-04-03T14:19:58;2.10;;;0.97;;
24859;SDS011;12936;52.006;4.350;2023-04-03T14:22:28;3.83;;;0.83;;
24859;SDS011;12936;52.006;4.350;2023-04-03T14:24:58;1.87;;;0.80;;
24859;SDS011;12936;52.006;4.350;2023-04-03T14:27:27;5.97;;;1.17;;
24859;SDS011;12936;52.006;4.350;2023-04-03T14:29:58;3.05;;;0.88;;
24859;SDS011;12936;52.006;4.350;2023-04-03T14:32:26;2.70;;;1.23;;
24859;SDS011;12936;52.006;4.350;2023-04-03T14:34:58;2.97;;;0.85;;
24859;SDS011;12936;52.006;4.350;2023-04-03T14:37:27;1.85;;;0.80;;
24859;SDS011;12936;52.006;4.350;2023-04-03T14:39:57;3.65;;;1.05;;
24859;SDS011;12936;52.006;4.350;2023-04-03T14:42:30;3.03;;;0.90;;
24859;SDS011;12936;52.006;4.350;2023-04-03T14:45:02;1.58;;;0.80;;
24859;SDS011;12936;52.006;4.350;2023-04-03T14:47:32;3.28;;;1.00;;
24859;SDS011;12936;52.006;4.350;2023-04-03T14:50:06;2.33;;;0.85;;
24859;SDS011;12936;52.006;4.350;2023-04-03T14:52:39;1.90;;;0.82;;
24859;SDS011;12936;52.006;4.350;2023-04-03T14:55:08;1.13;;;0.68;;
24859;SDS011;12936;52.006;4.350;2023-04-03T14:57:36;2.17;;;1.00;;
24859;SDS011;12936;52.006;4.350;2023-04-03T15:00:07;1.48;;;0.80;;
24859;SDS011;12936;52.006;4.350;2023-04-03T15:02:39;1.83;;;0.82;;
24859;SDS011;12936;52.006;4.350;2023-04-03T15:05:10;2.63;;;1.10;;
24859;SDS011;12936;52.006;4.350;2023-04-03T15:07:39;1.95;;;0.95;;
24859;SDS011;12936;52.006;4.350;2023-04-03T15:10:17;1.88;;;1.00;;
24859;SDS011;12936;52.006;4.350;2023-04-03T15:12:47;3.03;;;1.00;;
24859;SDS011;12936;52.006;4.350;2023-04-03T15:15:19;2.20;;;0.88;;
24859;SDS011;12936;52.006;4.350;2023-04-03T15:17:50;2.03;;;1.02;;
24859;SDS011;12936;52.006;4.350;2023-04-03T15:20:23;3.05;;;1.00;;
24859;SDS011;12936;52.006;4.350;2023-04-03T15:22:52;2.85;;;0.90;;
24859;SDS011;12936;52.006;4.350;2023-04-03T15:25:22;2.03;;;1.00;;
24859;SDS011;12936;52.006;4.350;2023-04-03T15:27:52;1.17;;;0.80;;
24859;SDS011;12936;52.006;4.350;2023-04-03T15:30:20;1.98;;;0.88;;
24859;SDS011;12936;52.006;4.350;2023-04-03T15:32:49;5.75;;;1.23;;
24859;SDS011;12936;52.006;4.350;2023-04-03T15:35:17;2.45;;;0.77;;
24859;SDS011;12936;52.006;4.350;2023-04-03T15:37:47;2.80;;;1.10;;
24859;SDS011;12936;52.006;4.350;2023-04-03T15:40:15;3.47;;;1.08;;
24859;SDS011;12936;52.006;4.350;2023-04-03T15:42:43;1.80;;;0.90;;